Home   Weather   Mayotte   Mamoudzou   Past weeks
Flag for Mayotte

Past Weather in Mamoudzou, Mayotte — Yesterday and Last 2 Weeks

Currently: 88 °F. Passing clouds. (Weather station: Dzaoudzi / Pamanzi Mayotte, Mayotte). See more current weather

Past Weather in Mamoudzou — Graph

°F

Mamoudzou Temperature Yesterday

Maximum temperature yesterday: 88 °F (at 10:00 am)
Minimum temperature yesterday: 75 °F (at 5:30 am)
Average temperature yesterday: 82 °F

High & Low Weather Summary for the Past Weeks

 TemperatureHumidityPressure
High90 °F (Nov 25, 1:00 pm)94% (Nov 28, 12:30 am)30.01 "Hg (Nov 28, 12:30 am)
Low75 °F (Nov 30, 4:00 am)59% (Nov 30, 10:30 am)29.80 "Hg (Nov 27, 2:00 pm)
Average82 °F75%29.88 "Hg
* Reported Nov 24 12:00 pm — Dec 9 12:00 pm, Mamoudzou. Weather by CustomWeather, © 2022

Note: Actual official high and low records may vary slightly from our data, if they occured in-between our weather recording intervals... More about our weather records

Mamoudzou Weather History for the Previous 24 Hours

Scroll right to see more
 ConditionsComfort  
Time TempWeatherWind HumidityBarometerVisibility
12:00 pm
Fri, Dec 9
88 °FScattered clouds.3 mph62%29.89 "HgN/A
11:30 am88 °FSunny.3 mph62%29.92 "Hg10 mi
11:00 am88 °FBroken clouds.5 mph66%29.92 "HgN/A
10:30 am88 °FPassing clouds.6 mph66%29.92 "HgN/A
10:00 am86 °FPassing clouds.5 mph70%29.92 "HgN/A
9:00 am86 °FSunny.3 mph70%29.95 "Hg10 mi
8:30 am84 °FSunny.3 mph74%29.92 "Hg10 mi
8:00 am82 °FSunny.3 mph79%29.92 "Hg10 mi
7:30 am82 °FOvercast.5 mph74%29.92 "HgN/A
7:00 am81 °FBroken clouds.6 mph84%29.92 "HgN/A
6:30 am81 °FBroken clouds.7 mph89%29.92 "HgN/A
6:00 am81 °FPassing clouds.8 mph84%29.89 "HgN/A
5:00 am79 °FPassing clouds.5 mph89%29.89 "HgN/A
4:30 am79 °FPassing clouds.5 mph89%29.89 "HgN/A
4:00 am79 °FPassing clouds.7 mph89%29.86 "HgN/A
2:30 am79 °FClear.2 mph84%29.83 "Hg10 mi
2:00 am79 °FClear.6 mph89%29.83 "Hg10 mi
1:00 am79 °FClear.8 mph89%29.83 "Hg10 mi
12:30 am79 °FClear.6 mph89%29.86 "Hg10 mi
12:00 am79 °FClear.5 mph89%29.86 "Hg10 mi
11:30 pm
Thu, Dec 8
81 °FClear.6 mph84%29.89 "Hg10 mi
11:00 pm79 °FClear.5 mph89%29.89 "Hg10 mi
10:30 pm81 °FPassing clouds.3 mph84%29.89 "HgN/A
10:00 pm81 °FClear.5 mph84%29.89 "Hg10 mi
9:00 pm81 °FClear.5 mph84%29.89 "Hg10 mi
8:30 pm81 °FClear.5 mph84%29.89 "Hg10 mi
8:00 pm81 °FClear.6 mph84%29.89 "Hg10 mi
7:00 pm82 °FPassing clouds.7 mph79%29.86 "HgN/A
6:30 pm82 °FPartly cloudy.7 mph79%29.86 "HgN/A
6:00 pm84 °FPartly sunny.6 mph74%29.86 "HgN/A
5:00 pm86 °FScattered clouds.No wind66%29.86 "HgN/A
4:30 pm86 °FPassing clouds.6 mph70%29.83 "HgN/A
4:00 pm86 °FPassing clouds.9 mph70%29.83 "HgN/A
3:30 pm84 °FScattered clouds.8 mph79%29.86 "HgN/A
3:00 pm82 °FBroken clouds.9 mph79%29.86 "HgN/A
2:30 pm84 °FPartly sunny.13 mph74%29.86 "HgN/A
2:00 pm86 °FPassing clouds.14 mph70%29.86 "HgN/A
1:00 pm84 °FBroken clouds.10 mph79%29.89 "HgN/A
Weather by CustomWeather, © 2022

See weather overview